Marietta, GA (30063)

11:06 AM EDT on September 01, 2014 (GMT -0400)
Williams Park | Change Station
CLOSE
Current Station
Personal Weather Station
Location: Smyrna, GA
Elevation: 1099 ft
Nearby Weather Stations

Elev 1099 ft 33.89 °N, 84.51 °W | Updated 3 minutes ago

Overcast
Overcast
81.3 °F
Feels Like 86 °F
N
0.0
Wind Variable Wind from SW
Gusts 2.0 mph

Today
High -- | Low -- °F
--% Chance of Precip.
Yesterday
High -- | Low -- °F
Precip. -- in
7:11 AM 8:03 PM
Waxing Crescent, 41% visible
Pressure 30.13 in
Visibility 10.0 miles
Clouds Mostly Cloudy 15000 ft
Overcast 25000 ft
Heat Index 86 °F
Dew Point 73 °F
Humidity 75%
Rainfall 0.00 in
Snow Depth Not available.
UV 2 out of 12
Pollen 9.00 out of 12
Air Quality Not available.
Flu Activity Not available.
METAR KMGE 011458Z VRB01KT 10SM BKN150 OVC250 28/23 A3016 RMK AO2A SLP203 T02760227 51007 $

More Conditions Fewer Conditions

Pressure 30.13 in
Visibility 10.0 miles
Clouds Mostly Cloudy 15000 ft
Overcast 25000 ft
Heat Index 86 °F
Dew Point 73 °F
Humidity 75%
Rainfall 0.00 in
Snow Depth Not available.
UV 2 out of 12
Pollen 9.00 out of 12
Air Quality Not available.
Flu Activity Not available.
METAR KMGE 011458Z VRB01KT 10SM BKN150 OVC250 28/23 A3016 RMK AO2A SLP203 T02760227 51007 $

More Conditions Fewer Conditions

10-Day Weather Forecast

Almanac

Astronomy

Sep. 01, 2014 Rise Set
Actual Time 7:11 AM EDT 8:03 PM EDT
Civil Twilight 6:46 AM EDT 8:29 PM EDT
Nautical Twilight 6:16 AM EDT 8:59 PM EDT
Astronomical Twilight 5:45 AM EDT 9:30 PM EDT
Moon 1:38 PM EDT No Moon Set
Length of Visible Light 13h 42m
Length of Day
12h 52m
Tomorrow will be 2m 2s shorter.
Waxing Crescent, 41% of the Moon is Illuminated
Today
Waxing Crescent
Sep 2
First Quarter
Sep 8
Full
Sep 15
Last Quarter
Sep 24
New

Today's Extremes

State Highs State Lows

Community

WunderPhotos

Upload Photos

1,749,256 photos uploaded!

Nearby

Air Quality

  Air Quality AQ Index Pollutant
Monday Moderate
PM2.5
Monday Good
OZONE

Snow Depth

Station Depth Elevation
No new snow has been reported.

Earthquake Activity

City Distance Mag. Time & Date
No recent earthquake activity has been reported nearby.
Minimum magnitude displayed is 2.5.

Coastal Water Temperatures

Place Temperature
No Stations Reporting

Nearby Weather Stations